createdAt,value
2018-06-01T00:01:08.668Z,22.50
2018-06-01T00:03:36.964Z,22.50
2018-06-01T00:06:05.293Z,22.50
2018-06-01T00:08:32.822Z,22.40
2018-06-01T00:11:00.380Z,22.50
2018-06-01T00:13:27.899Z,22.40
2018-06-01T00:15:55.461Z,22.40
2018-06-01T00:18:22.992Z,22.40
2018-06-01T00:20:51.315Z,22.30
2018-06-01T00:23:19.602Z,22.20
2018-06-01T00:25:47.931Z,22.30
2018-06-01T00:28:15.454Z,22.20
2018-06-01T00:30:43.016Z,22.20
2018-06-01T00:33:10.545Z,22.20
2018-06-01T00:35:38.872Z,22.20
2018-06-01T00:38:06.392Z,22.10
2018-06-01T00:40:34.720Z,22.00
2018-06-01T00:43:02.245Z,22.00
2018-06-01T00:45:29.804Z,21.90
2018-06-01T00:47:57.329Z,21.90
2018-06-01T00:50:24.893Z,21.80
2018-06-01T00:52:52.415Z,21.90
2018-06-01T00:55:24.557Z,21.90
2018-06-01T00:57:52.093Z,21.80
2018-06-01T01:00:20.416Z,21.90
2018-06-01T01:02:47.944Z,21.80
2018-06-01T01:05:15.507Z,21.80
2018-06-01T01:07:43.029Z,21.70
2018-06-01T01:10:10.595Z,21.70
2018-06-01T01:12:38.123Z,21.70
2018-06-01T01:15:05.649Z,21.60
2018-06-01T01:17:33.199Z,21.60
2018-06-01T01:20:01.489Z,21.40
2018-06-01T01:22:29.042Z,21.40
2018-06-01T01:24:57.323Z,21.40
2018-06-01T01:27:24.884Z,21.40
2018-06-01T01:29:52.403Z,21.40
2018-06-01T01:32:19.969Z,21.40
2018-06-01T01:34:47.497Z,21.30
2018-06-01T01:37:15.924Z,21.30
2018-06-01T01:39:44.217Z,21.20
2018-06-01T01:42:11.783Z,21.10
2018-06-01T01:44:39.304Z,21.10
2018-06-01T01:47:06.874Z,21.10
2018-06-01T01:49:34.405Z,21.10
2018-06-01T01:52:01.962Z,21.10
2018-06-01T01:54:29.485Z,21.00
2018-06-01T01:56:57.037Z,20.90
2018-06-01T01:59:25.328Z,20.70
2018-06-01T02:01:52.884Z,20.70
2018-06-01T02:04:20.408Z,20.60
2018-06-01T02:06:47.964Z,20.70
2018-06-01T02:09:15.495Z,20.70
2018-06-01T02:11:43.049Z,20.70
2018-06-01T02:14:10.580Z,20.70
2018-06-01T02:16:38.137Z,20.60
2018-06-01T02:19:06.303Z,20.60
2018-06-01T02:21:34.727Z,20.70
2018-06-01T02:24:02.256Z,20.70
2018-06-01T02:26:29.823Z,20.80
2018-06-01T02:28:57.348Z,20.70
2018-06-01T02:31:24.896Z,20.70
2018-06-01T02:33:52.432Z,20.70
2018-06-01T02:36:19.993Z,20.60
2018-06-01T02:38:48.388Z,20.60
2018-06-01T02:41:15.965Z,20.60
2018-06-01T02:43:43.493Z,20.50
2018-06-01T02:46:11.029Z,20.50
2018-06-01T02:48:38.600Z,20.50
2018-06-01T02:51:06.141Z,20.50
2018-06-01T02:53:33.696Z,20.40
2018-06-01T02:56:01.234Z,20.40
2018-06-01T02:58:29.556Z,20.40
2018-06-01T03:00:57.084Z,20.30
2018-06-01T03:03:25.416Z,20.40
2018-06-01T03:05:52.944Z,20.30
2018-06-01T03:08:20.500Z,20.30
2018-06-01T03:10:48.033Z,20.40
2018-06-01T03:13:16.361Z,20.30
2018-06-01T03:15:43.893Z,20.30
2018-06-01T03:18:11.445Z,20.30
2018-06-01T03:20:39.736Z,20.40
2018-06-01T03:23:07.284Z,20.30
2018-06-01T03:25:35.581Z,20.40
2018-06-01T03:28:03.132Z,20.30
2018-06-01T03:30:30.664Z,20.30
2018-06-01T03:32:58.988Z,20.30
2018-06-01T03:35:26.516Z,20.20
2018-06-01T03:37:54.837Z,20.20
2018-06-01T03:40:22.368Z,20.20
2018-06-01T03:42:49.928Z,20.20
2018-06-01T03:45:17.456Z,20.20
2018-06-01T03:47:45.016Z,20.20
2018-06-01T03:50:12.545Z,20.20
2018-06-01T03:52:40.072Z,20.10
2018-06-01T03:55:07.629Z,20.00
2018-06-01T03:57:35.156Z,20.10
2018-06-01T04:00:03.484Z,20.10
2018-06-01T04:02:31.021Z,20.00
2018-06-01T04:04:58.576Z,20.10
2018-06-01T04:07:26.877Z,20.20
2018-06-01T04:09:54.434Z,20.10
2018-06-01T04:12:21.964Z,20.20
2018-06-01T04:14:50.285Z,20.20
2018-06-01T04:17:17.832Z,20.20
2018-06-01T04:19:45.383Z,20.30
2018-06-01T04:22:12.908Z,20.30
2018-06-01T04:24:40.472Z,20.30
2018-06-01T04:27:08.009Z,20.30
2018-06-01T04:29:35.577Z,20.30
2018-06-01T04:32:03.105Z,20.30
2018-06-01T04:34:30.636Z,20.30
2018-06-01T04:36:58.195Z,20.30
2018-06-01T04:39:26.494Z,20.20
2018-06-01T04:41:54.048Z,20.10
2018-06-01T04:44:21.583Z,20.20
2018-06-01T04:46:49.921Z,20.10
2018-06-01T04:49:17.526Z,20.10
2018-06-01T04:51:45.044Z,20.20
2018-06-01T04:54:12.569Z,20.20
2018-06-01T04:56:40.129Z,20.30
2018-06-01T04:59:07.665Z,20.40
2018-06-01T05:01:36.418Z,20.50
2018-06-01T05:04:03.964Z,20.50
2018-06-01T05:06:31.528Z,20.60
2018-06-01T05:08:59.056Z,20.60
2018-06-01T05:11:26.611Z,20.60
2018-06-01T05:13:54.141Z,20.60
2018-06-01T05:16:22.474Z,20.80
2018-06-01T05:18:50.009Z,20.70
2018-06-01T05:21:17.566Z,20.80
2018-06-01T05:23:45.866Z,20.90
2018-06-01T05:26:13.451Z,20.90
2018-06-01T05:28:40.985Z,20.90
2018-06-01T05:31:08.529Z,20.90
2018-06-01T05:33:36.088Z,20.90
2018-06-01T05:36:03.624Z,21.00
2018-06-01T05:38:31.941Z,21.00
2018-06-01T05:40:59.471Z,21.00
2018-06-01T05:43:27.794Z,21.10
2018-06-01T05:45:55.332Z,21.00
2018-06-01T05:48:22.883Z,21.10
2018-06-01T05:50:50.411Z,21.10
2018-06-01T05:53:17.956Z,21.20
2018-06-01T05:55:45.492Z,21.30
2018-06-01T05:58:13.048Z,21.30
2018-06-01T06:00:40.573Z,21.20
2018-06-01T06:03:08.888Z,21.20
2018-06-01T06:05:36.420Z,21.20
2018-06-01T06:08:03.981Z,21.30
2018-06-01T06:10:31.513Z,21.40
2018-06-01T06:12:59.837Z,21.40
2018-06-01T06:15:28.132Z,21.50
2018-06-01T06:17:55.693Z,21.40
2018-06-01T06:20:23.224Z,21.60
2018-06-01T06:22:50.788Z,21.60
2018-06-01T06:25:18.312Z,21.60
2018-06-01T06:27:46.610Z,21.70
2018-06-01T06:30:14.170Z,21.70
2018-06-01T06:32:41.701Z,21.80
2018-06-01T06:35:09.259Z,21.90
2018-06-01T06:37:36.810Z,21.90
2018-06-01T06:40:04.348Z,22.00
2018-06-01T06:42:31.877Z,22.00
2018-06-01T06:44:59.432Z,22.00
2018-06-01T06:47:26.961Z,22.10
2018-06-01T06:49:54.521Z,22.10
2018-06-01T06:52:22.052Z,22.20
2018-06-01T06:54:49.617Z,22.20
2018-06-01T06:57:17.144Z,22.30
2018-06-01T06:59:44.700Z,22.30
2018-06-01T07:02:12.239Z,22.40
2018-06-01T07:04:40.561Z,22.60
2018-06-01T07:07:08.093Z,22.50
2018-06-01T07:09:35.652Z,22.70
2018-06-01T07:12:03.184Z,22.80
2018-06-01T07:14:30.736Z,22.90
2018-06-01T07:16:58.261Z,23.00
2018-06-01T07:19:25.823Z,23.10
2018-06-01T07:21:53.357Z,23.10
2018-06-01T07:24:20.896Z,23.10
2018-06-01T07:26:49.212Z,23.10
2018-06-01T07:29:16.736Z,23.00
2018-06-01T07:31:45.061Z,23.10
2018-06-01T07:34:12.603Z,23.10
2018-06-01T07:36:40.169Z,23.10
2018-06-01T07:39:07.701Z,23.20
2018-06-01T07:41:36.026Z,23.50
2018-06-01T07:44:03.553Z,23.50
2018-06-01T07:46:31.109Z,23.70
2018-06-01T07:48:58.643Z,23.80
2018-06-01T07:51:26.966Z,24.20
2018-06-01T07:53:54.496Z,24.10
2018-06-01T07:56:22.817Z,24.50
2018-06-01T07:58:50.349Z,24.40
2018-06-01T08:01:17.904Z,24.60
2018-06-01T08:03:45.432Z,24.80
2018-06-01T08:06:12.992Z,24.90
2018-06-01T08:08:40.524Z,25.10
2018-06-01T08:11:08.089Z,25.10
2018-06-01T08:13:35.625Z,25.20
2018-06-01T08:16:03.186Z,25.20
2018-06-01T08:18:30.723Z,25.20
2018-06-01T08:20:58.272Z,25.10
2018-06-01T08:23:26.563Z,25.10
2018-06-01T08:25:54.112Z,25.10
2018-06-01T08:28:21.649Z,25.20
2018-06-01T08:30:49.200Z,25.20
2018-06-01T08:33:16.737Z,25.20
2018-06-01T08:35:44.296Z,25.10
2018-06-01T08:38:11.850Z,25.10
2018-06-01T08:40:39.384Z,25.20
2018-06-01T08:43:06.940Z,25.20
2018-06-01T08:45:34.475Z,25.30
2018-06-01T08:48:02.033Z,25.20
2018-06-01T08:50:29.561Z,25.10
2018-06-01T08:52:57.126Z,25.10
2018-06-01T08:55:24.653Z,25.20
2018-06-01T08:57:52.209Z,25.30
2018-06-01T09:00:19.760Z,25.30
2018-06-01T09:02:47.317Z,25.40
2018-06-01T09:05:15.613Z,25.40
2018-06-01T09:07:43.168Z,25.30
2018-06-01T09:10:10.773Z,25.40
2018-06-01T09:12:38.272Z,25.40
2018-06-01T09:15:06.573Z,25.40
2018-06-01T09:17:34.128Z,25.30
2018-06-01T09:20:01.654Z,25.40
2018-06-01T09:22:29.977Z,25.50
2018-06-01T09:24:57.501Z,25.50
2018-06-01T09:27:25.832Z,25.50
2018-06-01T09:29:53.360Z,25.50
2018-06-01T09:32:20.916Z,25.60
2018-06-01T09:34:48.448Z,25.70
2018-06-01T09:37:16.008Z,25.70
2018-06-01T09:39:44.316Z,25.90
2018-06-01T09:42:11.871Z,25.90
2018-06-01T09:44:39.405Z,26.00
2018-06-01T09:47:06.971Z,26.10
2018-06-01T09:49:35.264Z,26.50
2018-06-01T09:52:03.581Z,26.80
2018-06-01T09:54:31.111Z,26.70
2018-06-01T09:56:58.669Z,26.90
2018-06-01T09:59:26.215Z,27.00
2018-06-01T10:01:53.776Z,27.10
2018-06-01T10:04:22.072Z,27.20
2018-06-01T10:06:49.635Z,27.10
2018-06-01T10:09:17.196Z,27.30
2018-06-01T10:11:44.725Z,27.40
2018-06-01T10:14:13.058Z,27.40
2018-06-01T10:16:41.709Z,27.30
2018-06-01T10:19:09.260Z,27.30
2018-06-01T10:21:37.560Z,27.50
2018-06-01T10:24:05.118Z,27.50
2018-06-01T10:26:32.662Z,27.70
2018-06-01T10:29:00.238Z,28.00
2018-06-01T10:31:27.785Z,27.90
2018-06-01T10:33:56.104Z,27.60
2018-06-01T10:36:23.639Z,27.60
2018-06-01T10:38:51.194Z,27.50
2018-06-01T10:41:18.725Z,27.40
2018-06-01T10:43:47.522Z,27.30
2018-06-01T10:46:16.372Z,27.10
2018-06-01T10:48:44.744Z,27.10
2018-06-01T10:51:12.276Z,27.00
2018-06-01T10:53:39.833Z,26.80
2018-06-01T10:56:07.365Z,26.70
2018-06-01T10:58:34.925Z,26.70
2018-06-01T11:01:03.220Z,26.60
2018-06-01T11:03:30.775Z,26.60
2018-06-01T11:05:59.075Z,26.50
2018-06-01T11:08:27.525Z,26.50
2018-06-01T11:10:55.057Z,26.40
2018-06-01T11:13:22.909Z,26.40
2018-06-01T11:15:50.440Z,26.30
2018-06-01T11:18:18.010Z,26.30
2018-06-01T11:20:45.551Z,26.20
2018-06-01T11:23:13.689Z,26.10
2018-06-01T11:25:41.224Z,25.90
2018-06-01T11:28:08.785Z,25.80
2018-06-01T11:30:36.320Z,25.70
2018-06-01T11:33:04.737Z,25.60
2018-06-01T11:35:32.271Z,25.60
2018-06-01T11:37:59.829Z,25.50
2018-06-01T11:40:27.361Z,25.50
2018-06-01T11:42:55.661Z,25.10
2018-06-01T11:45:23.220Z,25.00
2018-06-01T11:47:50.751Z,24.80
2018-06-01T11:50:19.085Z,24.60
2018-06-01T11:52:46.613Z,24.50
2018-06-01T11:55:14.176Z,24.50
2018-06-01T11:57:41.710Z,24.50
2018-06-01T12:00:09.257Z,24.40
2018-06-01T12:02:36.792Z,24.30
2018-06-01T12:05:04.348Z,24.20
2018-06-01T12:07:31.874Z,24.10
2018-06-01T12:09:59.422Z,24.10
2018-06-01T12:12:27.725Z,24.00
2018-06-01T12:14:55.272Z,23.90
2018-06-01T12:17:22.801Z,23.90
2018-06-01T12:19:50.391Z,23.80
2018-06-01T12:22:17.921Z,23.70
2018-06-01T12:24:46.249Z,23.50
2018-06-01T12:27:13.772Z,23.40
2018-06-01T12:29:42.093Z,23.00
2018-06-01T12:32:09.617Z,22.90
2018-06-01T12:34:37.252Z,22.80
2018-06-01T12:37:04.781Z,22.70
2018-06-01T12:39:32.343Z,22.60
2018-06-01T12:41:59.864Z,22.60
2018-06-01T12:44:27.415Z,22.50
2018-06-01T12:46:55.718Z,22.40
2018-06-01T12:49:23.272Z,22.30
2018-06-01T12:51:50.814Z,22.30
2018-06-01T12:54:18.368Z,22.20
2018-06-01T12:56:47.978Z,22.20
2018-06-01T12:59:17.497Z,22.20
2018-06-01T13:01:46.013Z,22.20
2018-06-01T13:04:13.882Z,22.30
2018-06-01T13:06:41.816Z,22.30
2018-06-01T13:09:09.388Z,22.30
2018-06-01T13:11:36.921Z,22.30
2018-06-01T13:14:05.252Z,22.20
2018-06-01T13:16:32.789Z,22.20
2018-06-01T13:19:00.308Z,22.10
2018-06-01T13:21:27.861Z,22.00
2018-06-01T13:23:55.385Z,22.00
2018-06-01T13:26:22.936Z,22.00
2018-06-01T13:28:50.467Z,22.00
2018-06-01T13:31:18.781Z,22.00
2018-06-01T13:33:46.305Z,21.90
2018-06-01T13:36:13.860Z,22.10
2018-06-01T13:38:42.161Z,22.20
2018-06-01T13:41:09.756Z,22.20
2018-06-01T13:43:37.278Z,22.30
2018-06-01T13:46:04.834Z,22.40
2018-06-01T13:48:32.365Z,22.40
2018-06-01T13:51:00.690Z,22.50
2018-06-01T13:53:28.233Z,22.50
2018-06-01T13:55:55.791Z,22.50
2018-06-01T13:58:23.326Z,22.60
2018-06-01T14:00:51.658Z,22.60
2018-06-01T14:03:19.217Z,22.50
2018-06-01T14:05:46.775Z,22.60
2018-06-01T14:08:14.326Z,22.70
2018-06-01T14:10:41.894Z,22.80
2018-06-01T14:13:09.433Z,22.80
2018-06-01T14:15:37.001Z,22.90
2018-06-01T14:18:04.562Z,22.90
2018-06-01T14:20:32.129Z,23.00
2018-06-01T14:22:59.668Z,23.00
2018-06-01T14:25:27.245Z,23.10
2018-06-01T14:27:54.772Z,23.10
2018-06-01T14:30:23.102Z,23.20
2018-06-01T14:32:50.643Z,23.20
2018-06-01T14:35:18.282Z,23.30
2018-06-01T14:37:45.757Z,23.20
2018-06-01T14:40:13.333Z,23.20
2018-06-01T14:42:40.887Z,23.20
2018-06-01T14:45:08.450Z,23.20
2018-06-01T14:47:35.980Z,23.20
2018-06-01T14:50:04.279Z,23.40
2018-06-01T14:52:31.844Z,23.30
2018-06-01T14:54:59.374Z,23.50
2018-06-01T14:57:27.709Z,23.80
2018-06-01T14:59:55.254Z,23.70
2018-06-01T15:02:22.813Z,23.90
2018-06-01T15:04:50.352Z,24.00
2018-06-01T15:07:17.919Z,24.10
2018-06-01T15:09:45.453Z,24.20
2018-06-01T15:12:13.777Z,24.30
2018-06-01T15:14:41.320Z,24.20
2018-06-01T15:17:08.887Z,24.30
2018-06-01T15:19:36.426Z,24.30
2018-06-01T15:22:03.996Z,24.40
2018-06-01T15:24:31.533Z,24.40
2018-06-01T15:26:59.869Z,24.50
2018-06-01T15:29:27.409Z,24.40
2018-06-01T15:31:54.965Z,24.50
2018-06-01T15:34:22.496Z,24.60
2018-06-01T15:36:50.825Z,24.80
2018-06-01T15:39:18.369Z,24.80
2018-06-01T15:41:45.941Z,24.90
2018-06-01T15:44:13.491Z,25.00
2018-06-01T15:46:41.057Z,25.10
2018-06-01T15:49:08.596Z,25.20
2018-06-01T15:51:36.157Z,25.30
2018-06-01T15:54:03.701Z,25.40
2018-06-01T15:56:31.283Z,25.50
2018-06-01T15:58:59.582Z,25.90
2018-06-01T16:01:27.130Z,25.90
2018-06-01T16:03:54.692Z,26.10
2018-06-01T16:06:22.232Z,26.40
2018-06-01T16:08:49.793Z,26.60
2018-06-01T16:11:17.331Z,26.70
2018-06-01T16:13:45.657Z,27.00
2018-06-01T16:16:13.184Z,27.00
2018-06-01T16:18:40.744Z,27.30
2018-06-01T16:21:08.281Z,27.60
2018-06-01T16:23:35.844Z,27.90
2018-06-01T16:26:03.376Z,28.00
2018-06-01T16:28:30.932Z,28.20
2018-06-01T16:30:58.461Z,28.50
2018-06-01T16:33:26.017Z,28.60
2018-06-01T16:35:53.552Z,28.70
2018-06-01T16:38:22.003Z,28.70
2018-06-01T16:40:49.527Z,28.60
2018-06-01T16:43:17.081Z,28.70
2018-06-01T16:45:44.629Z,28.70
2018-06-01T16:48:12.206Z,28.70
2018-06-01T16:50:39.744Z,28.60
2018-06-01T16:53:08.071Z,28.20
2018-06-01T16:55:35.614Z,28.20
2018-06-01T16:58:03.940Z,28.10
2018-06-01T17:00:31.472Z,28.10
2018-06-01T17:02:59.023Z,28.10
2018-06-01T17:05:26.542Z,28.10
2018-06-01T17:07:54.097Z,28.00
2018-06-01T17:10:22.428Z,28.00
2018-06-01T17:12:49.985Z,27.90
2018-06-01T17:15:17.508Z,27.90
2018-06-01T17:17:45.066Z,27.90
2018-06-01T17:20:12.592Z,27.80
2018-06-01T17:22:40.163Z,27.60
2018-06-01T17:25:08.477Z,27.40
2018-06-01T17:27:36.035Z,27.30
2018-06-01T17:30:03.565Z,27.20
2018-06-01T17:32:31.913Z,27.00
2018-06-01T17:34:59.448Z,27.00
2018-06-01T17:37:27.745Z,27.00
2018-06-01T17:39:55.307Z,26.90
2018-06-01T17:42:22.851Z,27.00
2018-06-01T17:44:50.404Z,26.90
2018-06-01T17:47:17.932Z,27.00
2018-06-01T17:49:45.492Z,26.90
2018-06-01T17:52:13.794Z,26.80
2018-06-01T17:54:41.353Z,26.80
2018-06-01T17:57:08.876Z,26.80
2018-06-01T17:59:37.200Z,26.70
2018-06-01T18:02:04.759Z,26.70
2018-06-01T18:04:32.322Z,26.60
2018-06-01T18:06:59.852Z,26.50
2018-06-01T18:09:28.169Z,26.30
2018-06-01T18:11:55.711Z,26.20
2018-06-01T18:14:23.268Z,26.10
2018-06-01T18:16:50.796Z,26.10
2018-06-01T18:19:19.123Z,25.90
2018-06-01T18:21:46.660Z,25.90
2018-06-01T18:24:14.217Z,25.80
2018-06-01T18:26:41.756Z,25.70
2018-06-01T18:29:10.085Z,25.70
2018-06-01T18:31:37.608Z,25.60
2018-06-01T18:34:05.165Z,25.60
2018-06-01T18:36:33.456Z,25.50
2018-06-01T18:39:01.007Z,25.50
2018-06-01T18:41:29.309Z,25.30
2018-06-01T18:43:56.874Z,25.30
2018-06-01T18:46:24.406Z,25.30
2018-06-01T18:48:51.956Z,25.20
2018-06-01T18:51:20.254Z,25.10
2018-06-01T18:53:47.813Z,25.00
2018-06-01T18:56:15.352Z,24.90
2018-06-01T18:58:43.668Z,24.70
2018-06-01T19:01:11.197Z,24.70
2018-06-01T19:03:39.517Z,24.60
2018-06-01T19:06:07.051Z,24.60
2018-06-01T19:08:34.604Z,24.60
2018-06-01T19:11:02.136Z,24.50
2018-06-01T19:13:29.713Z,24.40
2018-06-01T19:15:58.006Z,24.10
2018-06-01T19:18:25.544Z,24.10
2018-06-01T19:20:53.880Z,23.80
2018-06-01T19:23:21.418Z,23.80
2018-06-01T19:25:48.981Z,23.70
2018-06-01T19:28:16.517Z,23.80
2018-06-01T19:30:44.079Z,23.80
2018-06-01T19:33:11.621Z,23.80
2018-06-01T19:35:39.952Z,23.80
2018-06-01T19:38:07.507Z,23.70
2018-06-01T19:40:35.907Z,23.80
2018-06-01T19:43:03.446Z,23.80
2018-06-01T19:45:31.010Z,23.70
2018-06-01T19:47:58.552Z,23.70
2018-06-01T19:50:26.115Z,23.70
2018-06-01T19:52:53.658Z,23.70
2018-06-01T19:55:21.217Z,23.60
2018-06-01T19:57:48.748Z,23.60
2018-06-01T20:00:16.312Z,23.50
2018-06-01T20:02:43.853Z,23.50
2018-06-01T20:05:11.425Z,23.40
2018-06-01T20:07:38.962Z,23.40
2018-06-01T20:10:06.526Z,23.40
2018-06-01T20:12:34.065Z,23.30
2018-06-01T20:15:02.420Z,23.20
2018-06-01T20:17:29.957Z,23.20
2018-06-01T20:19:58.285Z,23.20
2018-06-01T20:22:25.837Z,23.20
2018-06-01T20:24:54.168Z,23.20
2018-06-01T20:27:21.706Z,23.10
2018-06-01T20:29:49.318Z,23.20
2018-06-01T20:32:16.821Z,23.20
2018-06-01T20:34:44.377Z,23.10
2018-06-01T20:37:11.916Z,23.10
2018-06-01T20:39:39.479Z,23.10
2018-06-01T20:42:07.024Z,23.10
2018-06-01T20:44:34.584Z,23.10
2018-06-01T20:47:02.148Z,23.10
2018-06-01T20:49:29.713Z,23.10
2018-06-01T20:51:57.249Z,23.10
2018-06-01T20:54:25.580Z,23.00
2018-06-01T20:56:53.126Z,23.00
2018-06-01T20:59:20.681Z,23.00
2018-06-01T21:01:49.044Z,23.00
2018-06-01T21:04:16.589Z,23.00
2018-06-01T21:06:45.342Z,22.80
2018-06-01T21:09:12.868Z,22.80
2018-06-01T21:11:40.577Z,22.80
2018-06-01T21:14:09.150Z,22.60
2018-06-01T21:16:36.816Z,22.40
2018-06-01T21:19:04.753Z,22.10
2018-06-01T21:21:32.945Z,22.00
2018-06-01T21:24:01.690Z,22.00
2018-06-01T21:26:29.874Z,22.00
2018-06-01T21:28:57.635Z,22.00
2018-06-01T21:31:26.040Z,22.00
2018-06-01T21:33:53.576Z,22.00
2018-06-01T21:36:21.155Z,22.00
2018-06-01T21:38:48.688Z,22.00
2018-06-01T21:41:17.000Z,22.10
2018-06-01T21:43:44.551Z,22.00
2018-06-01T21:46:12.113Z,22.10
2018-06-01T21:48:39.640Z,22.10
2018-06-01T21:51:07.964Z,22.00
2018-06-01T21:53:35.493Z,22.00
2018-06-01T21:56:03.046Z,22.10
2018-06-01T21:58:30.935Z,22.10
2018-06-01T22:00:58.540Z,22.10
2018-06-01T22:03:26.069Z,22.10
2018-06-01T22:05:53.620Z,22.10
2018-06-01T22:08:21.156Z,22.10
2018-06-01T22:10:48.720Z,22.10
2018-06-01T22:13:16.536Z,22.00
2018-06-01T22:15:44.089Z,22.00
2018-06-01T22:18:12.464Z,22.00
2018-06-01T22:20:40.028Z,22.00
2018-06-01T22:23:07.557Z,22.00
2018-06-01T22:25:35.113Z,22.00
2018-06-01T22:28:02.657Z,22.00
2018-06-01T22:30:30.980Z,22.00
2018-06-01T22:32:58.508Z,22.00
2018-06-01T22:35:26.072Z,21.90
2018-06-01T22:37:53.600Z,21.80
2018-06-01T22:40:21.900Z,21.60
2018-06-01T22:42:49.453Z,21.60
2018-06-01T22:45:17.753Z,21.50
2018-06-01T22:47:45.321Z,21.50
2018-06-01T22:50:12.872Z,21.40
2018-06-01T22:52:40.431Z,21.30
2018-06-01T22:55:07.961Z,21.20
2018-06-01T22:57:36.281Z,21.10
2018-06-01T23:00:03.817Z,21.10
2018-06-01T23:02:31.380Z,21.20
2018-06-01T23:04:58.913Z,21.00
2018-06-01T23:07:26.478Z,21.00
2018-06-01T23:09:54.803Z,20.80
2018-06-01T23:12:22.357Z,20.80
2018-06-01T23:14:49.897Z,20.70
2018-06-01T23:17:17.456Z,20.70
2018-06-01T23:19:45.787Z,20.50
2018-06-01T23:22:13.324Z,20.40
2018-06-01T23:24:40.848Z,20.40
2018-06-01T23:27:09.164Z,20.20
2018-06-01T23:29:36.691Z,20.20
2018-06-01T23:32:05.022Z,20.10
2018-06-01T23:34:32.549Z,20.00
2018-06-01T23:37:00.112Z,20.10
2018-06-01T23:39:27.652Z,20.00
2018-06-01T23:41:55.208Z,20.00
2018-06-01T23:44:23.500Z,20.00
2018-06-01T23:46:51.048Z,19.90
2018-06-01T23:49:19.336Z,19.90
2018-06-01T23:51:46.894Z,19.80
2018-06-01T23:54:14.429Z,19.90
2018-06-01T23:56:42.753Z,19.90
2018-06-01T23:59:10.281Z,19.80
